Steamboat, Nevada
Current Conditions -  °F | °C
As of 1:55 PM on Tuesday 21 Oct 2014 (Local Time) from KRNO Reporting Station
Broken Clouds Broken Clouds  
Wind Chill: 60°   Ceiling: 25000
Heat Index: 60°   Visibility: 10mi
Dew Point: 18°   Wind: 3mph
Humidity: 20%   Direction: 80°E
Pressure: 30.06"   Gusts: NA
Location:  39.3905°N, 119.807°W
Report Text: KRNO 212055Z 08003KT 10SM SCT200 BKN250 16/M08 A3006 RMK AO2 SLP155 T01561078 58022
Loading
Personal Weather Stations






























Interactive Weather Map
Tropical Storm Tracking
New forecast layout! Learn more

10-Day Weather Forecast

Advertisements
Track Severe Weather on mobile